Time;durP1;ratioP1;P1;durP2;ratioP2;P2;SDS_P1;SDS_P2;PMS_P1;PMS_P2;Temp;Humidity;BMP_temperature;BMP_pressure;BME280_temperature;BME280_humidity;BME280_pressure;Samples;Min_cycle;Max_cycle;Signal;HPM_P1;HPM_P2
2022/05/07 00:00:56;;;;;;;38.07;25.60;;;;;;;;;;5094890;28;20475;-70
2022/05/07 00:03:23;;;;;;;36.97;27.27;;;;;;;;;;5094742;28;20497;-70
2022/05/07 00:05:50;;;;;;;35.17;26.90;;;;;;;;;;5094944;28;20461;-70
2022/05/07 00:08:17;;;;;;;33.60;26.37;;;;;;;;;;5094988;28;20454;-70
2022/05/07 00:10:44;;;;;;;35.40;26.00;;;;;;;;;;5095115;28;20478;-70
2022/05/07 00:13:13;;;;;;;36.83;27.60;;;;;;;;;;5094856;28;20458;-70
2022/05/07 00:18:01;;;;;;;38.53;27.10;;;;;;;;;;5094557;28;20500;-70
2022/05/07 00:18:27;;;;;;;36.80;28.00;;;;;;;;;;5094474;28;20454;-70
2022/05/07 00:20:54;;;;;;;33.20;25.77;;;;;;;;;;5094813;28;20502;-70
2022/05/07 00:23:21;;;;;;;37.13;26.97;;;;;;;;;;5093988;28;20501;-70
2022/05/07 00:25:48;;;;;;;34.10;25.10;;;;;;;;;;5094364;28;20451;-70
2022/05/07 00:28:17;;;;;;;36.53;28.10;;;;;;;;;;5094569;28;20826;-70
2022/05/07 00:30:44;;;;;;;34.17;27.03;;;;;;;;;;5094402;28;20470;-70
2022/05/07 00:33:11;;;;;;;32.43;24.53;;;;;;;;;;5094331;28;20449;-70
2022/05/07 00:35:38;;;;;;;37.23;26.63;;;;;;;;;;5094282;28;20454;-70
2022/05/07 00:38:05;;;;;;;36.63;26.97;;;;;;;;;;5094245;28;20458;-70
2022/05/07 00:40:32;;;;;;;34.90;24.60;;;;;;;;;;5094363;28;20482;-70
2022/05/07 00:42:59;;;;;;;37.90;27.00;;;;;;;;;;5093957;28;20529;-71
2022/05/07 00:45:28;;;;;;;34.90;27.47;;;;;;;;;;5094044;28;20447;-70
2022/05/07 00:47:55;;;;;;;41.03;28.40;;;;;;;;;;5093969;28;20458;-70
2022/05/07 00:53:07;;;;;;;40.40;26.00;;;;;;;;;;5094072;28;20459;-70
2022/05/07 00:55:34;;;;;;;35.43;26.40;;;;;;;;;;5093996;28;20457;-70
2022/05/07 00:58:01;;;;;;;37.30;25.03;;;;;;;;;;5094221;28;20822;-70
2022/05/07 01:00:30;;;;;;;35.50;25.77;;;;;;;;;;5094167;28;20508;-70
2022/05/07 01:02:57;;;;;;;34.17;26.03;;;;;;;;;;5094116;28;20565;-70
2022/05/07 01:05:24;;;;;;;39.20;25.70;;;;;;;;;;5093658;28;20450;-70
2022/05/07 01:07:52;;;;;;;35.73;25.43;;;;;;;;;;5093755;28;20447;-70
2022/05/07 01:10:20;;;;;;;31.40;23.23;;;;;;;;;;5093828;28;20880;-70
2022/05/07 01:12:48;;;;;;;33.80;25.40;;;;;;;;;;5093764;28;20971;-70
2022/05/07 01:15:15;;;;;;;36.33;25.40;;;;;;;;;;5093570;28;20469;-70
2022/05/07 01:17:44;;;;;;;29.30;23.63;;;;;;;;;;5093612;28;20451;-70
2022/05/07 01:20:12;;;;;;;33.50;25.13;;;;;;;;;;5093399;28;21018;-70
2022/05/07 01:22:42;;;;;;;32.73;24.30;;;;;;;;;;5092961;28;20451;-70
2022/05/07 01:25:09;;;;;;;32.00;24.87;;;;;;;;;;5093257;28;20486;-70
2022/05/07 01:27:37;;;;;;;35.83;24.93;;;;;;;;;;5093619;28;20469;-70
2022/05/07 01:30:04;;;;;;;34.93;24.80;;;;;;;;;;5093335;28;20474;-70
2022/05/07 01:32:31;;;;;;;33.60;24.37;;;;;;;;;;5093456;28;20483;-70
2022/05/07 01:34:58;;;;;;;32.40;25.17;;;;;;;;;;5092983;28;20468;-70
2022/05/07 01:37:25;;;;;;;35.20;25.57;;;;;;;;;;5093493;28;20940;-70
2022/05/07 01:39:54;;;;;;;34.20;26.37;;;;;;;;;;5093345;28;20539;-70
2022/05/07 01:42:21;;;;;;;35.50;25.60;;;;;;;;;;5093326;28;20446;-70
2022/05/07 01:44:48;;;;;;;40.40;26.93;;;;;;;;;;5092969;28;20548;-70
2022/05/07 01:50:06;;;;;;;30.17;23.80;;;;;;;;;;5077147;28;20542;-70
2022/05/07 01:52:33;;;;;;;37.47;26.73;;;;;;;;;;5093310;28;20447;-70
2022/05/07 01:55:01;;;;;;;35.73;26.20;;;;;;;;;;5092856;28;20442;-70
2022/05/07 01:57:28;;;;;;;33.50;24.10;;;;;;;;;;5093062;28;20454;-70
2022/05/07 01:59:56;;;;;;;31.67;23.10;;;;;;;;;;5092896;28;20466;-70
2022/05/07 02:02:23;;;;;;;33.80;25.00;;;;;;;;;;5093205;28;20867;-70
2022/05/07 02:04:50;;;;;;;31.07;23.97;;;;;;;;;;5096616;28;20573;-70
2022/05/07 02:07:17;;;;;;;32.10;23.13;;;;;;;;;;5097251;28;20449;-70
2022/05/07 02:09:44;;;;;;;33.83;23.17;;;;;;;;;;5097201;28;21009;-70
2022/05/07 02:12:13;;;;;;;35.70;25.27;;;;;;;;;;5097034;28;20800;-70
2022/05/07 02:14:40;;;;;;;32.70;23.97;;;;;;;;;;5096951;28;20473;-70
2022/05/07 02:17:07;;;;;;;39.90;28.03;;;;;;;;;;5097094;28;20454;-70
2022/05/07 02:19:34;;;;;;;34.40;25.47;;;;;;;;;;5097060;28;20466;-70
2022/05/07 02:22:01;;;;;;;36.80;24.93;;;;;;;;;;5096625;28;20478;-70
2022/05/07 02:24:28;;;;;;;35.30;23.80;;;;;;;;;;5096745;28;20493;-70
2022/05/07 02:26:55;;;;;;;34.07;25.17;;;;;;;;;;5096816;28;20461;-70
2022/05/07 02:29:24;;;;;;;34.43;24.47;;;;;;;;;;5096744;28;20482;-70
2022/05/07 02:32:05;;;;;;;29.77;23.53;;;;;;;;;;5096666;28;20449;-70
2022/05/07 02:34:32;;;;;;;35.23;25.40;;;;;;;;;;5096963;28;20966;-70
2022/05/07 02:36:59;;;;;;;32.83;24.10;;;;;;;;;;5096843;28;20458;-70
2022/05/07 02:39:26;;;;;;;32.33;24.10;;;;;;;;;;5096873;28;20466;-70
2022/05/07 02:44:40;;;;;;;31.33;24.00;;;;;;;;;;5096470;28;20481;-70
2022/05/07 02:47:07;;;;;;;31.80;23.87;;;;;;;;;;5096492;28;20504;-70
2022/05/07 02:49:34;;;;;;;30.87;23.57;;;;;;;;;;5096734;28;20975;-70
2022/05/07 02:52:01;;;;;;;34.63;26.63;;;;;;;;;;5096618;28;20450;-70
2022/05/07 02:54:29;;;;;;;36.83;25.57;;;;;;;;;;5096329;28;20446;-70
2022/05/07 02:56:56;;;;;;;31.10;25.00;;;;;;;;;;5096442;28;20476;-70
2022/05/07 02:59:23;;;;;;;35.10;25.60;;;;;;;;;;5096578;28;20485;-70
2022/05/07 03:01:52;;;;;;;33.27;25.50;;;;;;;;;;5096566;28;20447;-70
2022/05/07 03:04:20;;;;;;;34.87;23.50;;;;;;;;;;5096235;28;20840;-70
2022/05/07 03:06:47;;;;;;;34.90;24.93;;;;;;;;;;5096142;28;21012;-70
2022/05/07 03:09:14;;;;;;;28.63;24.13;;;;;;;;;;5096031;28;20484;-70
2022/05/07 03:11:42;;;;;;;31.77;24.63;;;;;;;;;;5096114;28;20451;-70
2022/05/07 03:14:09;;;;;;;30.80;24.43;;;;;;;;;;5095044;28;20885;-70
2022/05/07 03:16:38;;;;;;;31.60;24.10;;;;;;;;;;5095274;28;20477;-70
2022/05/07 03:19:07;;;;;;;33.70;24.53;;;;;;;;;;5095803;28;20559;-70
2022/05/07 03:21:34;;;;;;;32.70;24.43;;;;;;;;;;5095992;28;20446;-70
2022/05/07 03:24:01;;;;;;;29.60;24.37;;;;;;;;;;5095548;28;21032;-70
2022/05/07 03:26:28;;;;;;;35.67;22.80;;;;;;;;;;5096064;28;20451;-70
2022/05/07 03:28:55;;;;;;;32.60;24.03;;;;;;;;;;5095822;28;20485;-70
2022/05/07 03:31:23;;;;;;;35.50;24.10;;;;;;;;;;5095608;28;20643;-70
2022/05/07 03:33:50;;;;;;;29.90;24.10;;;;;;;;;;5095690;28;20455;-70
2022/05/07 03:36:19;;;;;;;33.77;25.83;;;;;;;;;;5095522;28;20515;-70
2022/05/07 03:38:46;;;;;;;36.67;25.37;;;;;;;;;;5095531;28;20935;-70
2022/05/07 03:41:14;;;;;;;33.10;24.33;;;;;;;;;;5095748;28;20466;-70
2022/05/07 03:43:42;;;;;;;33.70;24.43;;;;;;;;;;5095241;28;20551;-70
2022/05/07 03:46:09;;;;;;;31.37;23.30;;;;;;;;;;5095257;28;20913;-70
2022/05/07 03:48:36;;;;;;;25.63;21.00;;;;;;;;;;5095320;28;20469;-70
2022/05/07 03:51:04;;;;;;;29.70;21.50;;;;;;;;;;5095224;28;20970;-70
2022/05/07 03:53:31;;;;;;;30.93;22.30;;;;;;;;;;5095192;28;20817;-70
2022/05/07 03:55:59;;;;;;;35.13;22.03;;;;;;;;;;5095013;28;20998;-70
2022/05/07 03:58:26;;;;;;;30.10;22.33;;;;;;;;;;5095229;28;20458;-70
2022/05/07 04:00:54;;;;;;;31.93;24.47;;;;;;;;;;5095102;28;20471;-70
2022/05/07 04:03:22;;;;;;;30.50;22.03;;;;;;;;;;5095194;28;21212;-70
2022/05/07 04:05:49;;;;;;;30.90;22.90;;;;;;;;;;5094883;28;20493;-70
2022/05/07 04:08:16;;;;;;;29.60;21.50;;;;;;;;;;5095037;28;20451;-70
2022/05/07 04:10:45;;;;;;;30.37;21.53;;;;;;;;;;5095180;28;20873;-70
2022/05/07 04:13:12;;;;;;;29.83;22.40;;;;;;;;;;5094770;28;20454;-70
2022/05/07 04:15:40;;;;;;;32.43;23.60;;;;;;;;;;5094962;28;20816;-70
2022/05/07 04:18:07;;;;;;;29.67;23.63;;;;;;;;;;5094734;28;20451;-70
2022/05/07 04:20:35;;;;;;;32.17;23.50;;;;;;;;;;5094674;28;21004;-70
2022/05/07 04:23:02;;;;;;;30.60;22.43;;;;;;;;;;5094159;28;20469;-70
2022/05/07 04:25:29;;;;;;;28.20;21.87;;;;;;;;;;5094305;28;21014;-71
2022/05/07 04:27:58;;;;;;;34.87;24.47;;;;;;;;;;5094465;28;20955;-70
2022/05/07 04:30:26;;;;;;;26.80;20.43;;;;;;;;;;5094382;28;20979;-70
2022/05/07 04:32:53;;;;;;;28.93;21.97;;;;;;;;;;5094541;28;21041;-70
2022/05/07 04:35:20;;;;;;;30.17;21.97;;;;;;;;;;5094328;28;20928;-70
2022/05/07 04:37:47;;;;;;;30.50;23.47;;;;;;;;;;5094407;28;20455;-70
2022/05/07 04:40:15;;;;;;;30.77;21.10;;;;;;;;;;5094161;28;20972;-70
2022/05/07 04:42:42;;;;;;;28.83;20.07;;;;;;;;;;5094229;28;20523;-70
2022/05/07 04:45:11;;;;;;;27.73;20.00;;;;;;;;;;5094031;28;20553;-70
2022/05/07 04:47:39;;;;;;;27.70;19.87;;;;;;;;;;5094210;28;20453;-70
2022/05/07 04:50:06;;;;;;;23.50;18.90;;;;;;;;;;5094132;28;20520;-70
2022/05/07 04:52:33;;;;;;;27.60;17.73;;;;;;;;;;5094176;28;20959;-70
2022/05/07 04:55:02;;;;;;;24.23;16.80;;;;;;;;;;5093902;28;20477;-70
2022/05/07 04:57:29;;;;;;;25.40;17.53;;;;;;;;;;5094249;28;21020;-70
2022/05/07 04:59:56;;;;;;;26.10;18.00;;;;;;;;;;5094035;28;20477;-70
2022/05/07 05:02:25;;;;;;;23.87;17.93;;;;;;;;;;5093922;28;20443;-70
2022/05/07 05:04:52;;;;;;;25.47;18.27;;;;;;;;;;5093747;28;20490;-70
2022/05/07 05:07:19;;;;;;;25.53;19.87;;;;;;;;;;5093700;28;20455;-69
2022/05/07 05:09:46;;;;;;;27.53;19.77;;;;;;;;;;5093783;28;20466;-70
2022/05/07 05:12:13;;;;;;;24.00;17.83;;;;;;;;;;5093836;28;20450;-69
2022/05/07 05:17:26;;;;;;;23.00;17.13;;;;;;;;;;5093727;28;20912;-69
2022/05/07 05:19:54;;;;;;;22.33;17.90;;;;;;;;;;5089345;28;20485;-70
2022/05/07 05:22:21;;;;;;;22.53;16.47;;;;;;;;;;5092647;28;20952;-70
2022/05/07 05:24:48;;;;;;;20.73;15.97;;;;;;;;;;5093229;28;20490;-69
2022/05/07 05:27:15;;;;;;;32.10;20.20;;;;;;;;;;5093336;28;20461;-70
2022/05/07 05:29:42;;;;;;;23.40;17.30;;;;;;;;;;5093279;28;20474;-70
2022/05/07 05:32:09;;;;;;;29.80;19.73;;;;;;;;;;5093252;28;20508;-70
2022/05/07 05:34:38;;;;;;;23.97;17.27;;;;;;;;;;5093116;28;20449;-70
2022/05/07 05:37:05;;;;;;;25.10;18.23;;;;;;;;;;5093232;28;20861;-69
2022/05/07 05:39:32;;;;;;;26.20;19.60;;;;;;;;;;5092662;28;20470;-69
2022/05/07 05:41:59;;;;;;;27.53;19.37;;;;;;;;;;5093420;28;20450;-70
2022/05/07 05:44:26;;;;;;;22.47;18.00;;;;;;;;;;5092972;28;20461;-69
2022/05/07 05:46:53;;;;;;;24.73;18.43;;;;;;;;;;5093051;28;20453;-69
2022/05/07 05:49:20;;;;;;;21.47;18.50;;;;;;;;;;5092974;28;20510;-69
2022/05/07 05:51:49;;;;;;;26.27;18.97;;;;;;;;;;5093142;28;20935;-70
2022/05/07 05:54:16;;;;;;;24.70;17.30;;;;;;;;;;5093132;28;20951;-70
2022/05/07 05:56:43;;;;;;;29.70;21.03;;;;;;;;;;5093067;28;20446;-69
2022/05/07 05:59:10;;;;;;;25.77;18.70;;;;;;;;;;5092953;28;20511;-70
2022/05/07 06:01:37;;;;;;;25.40;19.70;;;;;;;;;;5092958;28;20447;-70
2022/05/07 06:04:04;;;;;;;26.63;19.90;;;;;;;;;;5092686;28;20523;-70
2022/05/07 06:06:32;;;;;;;27.17;21.03;;;;;;;;;;5092964;28;21018;-70
2022/05/07 06:09:00;;;;;;;28.20;20.53;;;;;;;;;;5093165;28;20566;-70
2022/05/07 06:11:28;;;;;;;25.47;19.90;;;;;;;;;;5092895;28;20443;-70
2022/05/07 06:13:55;;;;;;;26.60;18.90;;;;;;;;;;5092925;28;20952;-69
2022/05/07 06:16:22;;;;;;;26.70;20.00;;;;;;;;;;5089680;28;20826;-70
2022/05/07 06:18:49;;;;;;;24.30;18.77;;;;;;;;;;5091438;28;20453;-70
2022/05/07 06:21:17;;;;;;;27.70;20.63;;;;;;;;;;5091581;28;20455;-70
2022/05/07 06:23:44;;;;;;;26.70;21.77;;;;;;;;;;5090965;28;20466;-70
2022/05/07 06:28:58;;;;;;;27.47;20.10;;;;;;;;;;5091361;28;20470;-70
2022/05/07 06:31:26;;;;;;;25.73;20.10;;;;;;;;;;5091513;28;20494;-70
2022/05/07 06:33:53;;;;;;;28.07;20.97;;;;;;;;;;5091231;28;20994;-70
2022/05/07 06:36:20;;;;;;;22.60;16.00;;;;;;;;;;5091083;28;20827;-70
2022/05/07 06:38:48;;;;;;;27.80;20.30;;;;;;;;;;5091099;28;20792;-69
2022/05/07 06:41:16;;;;;;;28.07;18.60;;;;;;;;;;5091115;28;20912;-69
2022/05/07 06:43:44;;;;;;;28.63;19.67;;;;;;;;;;5091228;28;20455;-70
2022/05/07 06:46:11;;;;;;;24.13;19.43;;;;;;;;;;5091123;28;20486;-69
2022/05/07 06:48:38;;;;;;;23.57;18.10;;;;;;;;;;5091427;28;20450;-69
2022/05/07 06:51:05;;;;;;;22.33;17.60;;;;;;;;;;5095387;28;20469;-69
2022/05/07 06:53:32;;;;;;;24.20;16.90;;;;;;;;;;5094537;28;20461;-69
2022/05/07 06:55:59;;;;;;;24.73;18.70;;;;;;;;;;5094918;28;20453;-69
2022/05/07 06:58:30;;;;;;;21.60;17.00;;;;;;;;;;5095241;28;20819;-70
2022/05/07 07:00:58;;;;;;;22.87;19.27;;;;;;;;;;5094887;28;20474;-69
2022/05/07 07:03:25;;;;;;;22.97;16.90;;;;;;;;;;5095127;28;20450;-70
2022/05/07 07:05:54;;;;;;;24.37;19.93;;;;;;;;;;5095294;28;20541;-70
2022/05/07 07:08:21;;;;;;;27.13;20.67;;;;;;;;;;5095117;28;20454;-70
2022/05/07 07:10:48;;;;;;;21.03;18.20;;;;;;;;;;5095001;28;20566;-70
2022/05/07 07:13:16;;;;;;;24.33;18.33;;;;;;;;;;5094599;28;20466;-69
2022/05/07 07:15:45;;;;;;;25.37;18.73;;;;;;;;;;5094676;28;20921;-69
2022/05/07 07:18:12;;;;;;;21.93;18.23;;;;;;;;;;5094447;28;20476;-69
2022/05/07 07:20:40;;;;;;;23.13;18.87;;;;;;;;;;5094399;28;20477;-70
2022/05/07 07:23:10;;;;;;;29.10;19.30;;;;;;;;;;5094116;28;20463;-69
2022/05/07 07:25:37;;;;;;;21.87;18.33;;;;;;;;;;5094268;28;20486;-70
2022/05/07 07:28:04;;;;;;;24.90;18.23;;;;;;;;;;5094505;28;20462;-70
2022/05/07 07:30:31;;;;;;;25.53;20.10;;;;;;;;;;5094281;28;20474;-69
2022/05/07 07:33:00;;;;;;;27.33;20.40;;;;;;;;;;5094360;28;20462;-70
2022/05/07 07:35:27;;;;;;;28.43;20.50;;;;;;;;;;5094068;28;20449;-70
2022/05/07 07:37:54;;;;;;;28.53;21.70;;;;;;;;;;5094561;28;20852;-70
2022/05/07 07:40:21;;;;;;;29.07;23.13;;;;;;;;;;5094238;28;20467;-70
2022/05/07 07:42:48;;;;;;;24.60;18.73;;;;;;;;;;5094479;28;20946;-70
2022/05/07 07:48:03;;;;;;;27.10;20.60;;;;;;;;;;5095505;28;20402;-69
2022/05/07 07:50:31;;;;;;;30.30;21.67;;;;;;;;;;5094689;28;20486;-70
2022/05/07 07:52:59;;;;;;;25.37;19.80;;;;;;;;;;5095515;28;20455;-69
2022/05/07 07:55:26;;;;;;;23.83;20.00;;;;;;;;;;5095349;28;20849;-70
2022/05/07 07:57:55;;;;;;;25.20;19.10;;;;;;;;;;5095452;28;20451;-70
2022/05/07 08:00:23;;;;;;;21.73;17.97;;;;;;;;;;5095155;28;20471;-70
2022/05/07 08:02:50;;;;;;;23.07;20.20;;;;;;;;;;5094746;28;20947;-70
2022/05/07 08:05:21;;;;;;;22.90;17.87;;;;;;;;;;5094993;28;20450;-70
2022/05/07 08:13:18;;;;;;;26.90;19.80;;;;;;;;;;5095035;28;20903;-70
2022/05/07 08:15:45;;;;;;;23.90;20.07;;;;;;;;;;5095127;28;20447;-70
2022/05/07 08:18:12;;;;;;;25.23;18.70;;;;;;;;;;5094994;28;20889;-70
2022/05/07 08:20:42;;;;;;;21.23;19.03;;;;;;;;;;5095042;28;20975;-70
2022/05/07 08:23:09;;;;;;;21.60;19.23;;;;;;;;;;5094594;28;20963;-70
2022/05/07 08:25:36;;;;;;;22.93;16.40;;;;;;;;;;5094490;28;20494;-69
2022/05/07 08:28:03;;;;;;;20.90;17.23;;;;;;;;;;5094910;28;20816;-70
2022/05/07 08:30:30;;;;;;;24.47;21.23;;;;;;;;;;5094787;28;20482;-69
2022/05/07 08:32:58;;;;;;;22.23;18.40;;;;;;;;;;5094451;28;20458;-70
2022/05/07 08:35:25;;;;;;;21.70;17.90;;;;;;;;;;5094660;28;20825;-69
2022/05/07 08:37:53;;;;;;;21.20;17.57;;;;;;;;;;5094278;28;20459;-70
2022/05/07 08:40:20;;;;;;;26.70;21.53;;;;;;;;;;5094627;28;20463;-69
2022/05/07 08:42:48;;;;;;;26.00;21.90;;;;;;;;;;5094509;28;20455;-69
2022/05/07 08:45:15;;;;;;;30.23;22.03;;;;;;;;;;5094404;28;20516;-69
2022/05/07 08:47:43;;;;;;;26.00;20.37;;;;;;;;;;5094577;28;20446;-69
2022/05/07 08:50:11;;;;;;;57.97;48.90;;;;;;;;;;5094225;28;20482;-69
2022/05/07 08:52:39;;;;;;;24.03;19.17;;;;;;;;;;5091940;28;20455;-69
2022/05/07 08:55:08;;;;;;;23.07;19.17;;;;;;;;;;5092568;28;20461;-69
2022/05/07 08:57:36;;;;;;;23.83;20.10;;;;;;;;;;5091460;28;20454;-69
2022/05/07 09:00:04;;;;;;;22.70;18.40;;;;;;;;;;5092560;28;20504;-69
2022/05/07 09:02:38;;;;;;;20.27;17.23;;;;;;;;;;5092452;28;20884;-70
2022/05/07 09:05:06;;;;;;;20.13;15.87;;;;;;;;;;5092284;28;20442;-70
2022/05/07 09:07:33;;;;;;;22.63;16.80;;;;;;;;;;5092519;28;20512;-70
2022/05/07 09:10:00;;;;;;;20.33;16.77;;;;;;;;;;5092370;28;20489;-70
2022/05/07 09:12:29;;;;;;;21.83;17.33;;;;;;;;;;5092332;28;20466;-70
2022/05/07 09:15:01;;;;;;;22.00;17.83;;;;;;;;;;5092013;28;20447;-70
2022/05/07 09:17:28;;;;;;;23.00;17.10;;;;;;;;;;5092449;28;20480;-70
2022/05/07 09:19:55;;;;;;;20.33;15.60;;;;;;;;;;5092130;28;20474;-70
2022/05/07 09:22:23;;;;;;;27.07;19.27;;;;;;;;;;5092468;28;20465;-69
2022/05/07 09:24:55;;;;;;;22.93;17.10;;;;;;;;;;5092134;28;20473;-70
2022/05/07 09:27:22;;;;;;;23.00;18.60;;;;;;;;;;5092169;28;20490;-70
2022/05/07 09:30:02;;;;;;;20.07;16.23;;;;;;;;;;5091704;28;20523;-70
2022/05/07 09:32:36;;;;;;;27.30;17.40;;;;;;;;;;5092451;28;20812;-69
2022/05/07 09:38:00;;;;;;;20.17;16.40;;;;;;;;;;5091998;28;20426;-70
2022/05/07 09:40:27;;;;;;;19.00;15.33;;;;;;;;;;5091965;28;20486;-69
2022/05/07 09:42:56;;;;;;;21.00;17.80;;;;;;;;;;5091959;28;20451;-69
2022/05/07 09:45:25;;;;;;;23.13;17.80;;;;;;;;;;5092221;28;20987;-69
2022/05/07 09:47:52;;;;;;;17.73;15.47;;;;;;;;;;5091686;28;20495;-70
2022/05/07 09:58:37;;;;;;;22.93;17.97;;;;;;;;;;5091996;28;20464;-69
2022/05/07 10:01:13;;;;;;;21.30;17.30;;;;;;;;;;5092115;28;20452;-69
2022/05/07 10:03:42;;;;;;;25.93;16.40;;;;;;;;;;5092004;28;20438;-70
2022/05/07 10:06:16;;;;;;;22.80;16.13;;;;;;;;;;5091496;28;20486;-69
2022/05/07 10:08:50;;;;;;;15.33;12.80;;;;;;;;;;5092047;28;21119;-70
2022/05/07 10:11:18;;;;;;;20.30;15.83;;;;;;;;;;5093397;28;20435;-70
2022/05/07 10:13:53;;;;;;;17.50;13.50;;;;;;;;;;5093256;28;20455;-70
2022/05/07 10:16:22;;;;;;;20.63;14.57;;;;;;;;;;5092997;28;20529;-70
2022/05/07 10:18:50;;;;;;;24.70;17.00;;;;;;;;;;5093262;28;20976;-70
2022/05/07 10:21:17;;;;;;;17.37;11.67;;;;;;;;;;5093269;28;20954;-70
2022/05/07 10:23:52;;;;;;;14.60;12.13;;;;;;;;;;5092815;28;20959;-70
2022/05/07 10:26:19;;;;;;;13.90;10.30;;;;;;;;;;5096846;28;20520;-70
2022/05/07 10:28:47;;;;;;;18.97;12.60;;;;;;;;;;5097092;28;20451;-70
2022/05/07 10:31:18;;;;;;;10.47;9.37;;;;;;;;;;5097169;28;20958;-70
2022/05/07 10:33:46;;;;;;;10.30;8.23;;;;;;;;;;5096760;28;20450;-70
2022/05/07 10:36:14;;;;;;;13.23;8.77;;;;;;;;;;5096790;28;20442;-70
2022/05/07 10:38:44;;;;;;;13.63;11.90;;;;;;;;;;5096640;28;20541;-70
2022/05/07 10:41:22;;;;;;;15.10;11.13;;;;;;;;;;5096598;28;20459;-70
2022/05/07 10:43:49;;;;;;;10.10;7.50;;;;;;;;;;5096953;28;20438;-70
2022/05/07 10:46:17;;;;;;;11.53;9.07;;;;;;;;;;5093621;28;20501;-70
2022/05/07 10:48:45;;;;;;;10.93;9.83;;;;;;;;;;5095402;28;20550;-70
2022/05/07 10:51:23;;;;;;;10.73;9.60;;;;;;;;;;5095340;28;20553;-70
2022/05/07 10:53:51;;;;;;;11.27;9.77;;;;;;;;;;5095366;28;20871;-70
2022/05/07 10:56:18;;;;;;;10.60;9.53;;;;;;;;;;5094980;28;20462;-70
2022/05/07 10:58:46;;;;;;;13.43;11.13;;;;;;;;;;5095311;28;20451;-70
2022/05/07 11:01:14;;;;;;;14.53;10.00;;;;;;;;;;5094541;28;20489;-70
2022/05/07 11:03:41;;;;;;;13.40;9.30;;;;;;;;;;5095128;28;20944;-70
2022/05/07 11:06:08;;;;;;;10.80;9.77;;;;;;;;;;5095029;28;20451;-70
2022/05/07 11:08:46;;;;;;;12.60;10.17;;;;;;;;;;5094941;28;20451;-70
2022/05/07 11:11:14;;;;;;;12.93;11.63;;;;;;;;;;5094679;28;20461;-70
2022/05/07 11:13:49;;;;;;;14.40;10.57;;;;;;;;;;5094883;28;20470;-70
2022/05/07 11:16:17;;;;;;;11.03;9.90;;;;;;;;;;5094353;28;20460;-70
2022/05/07 11:18:45;;;;;;;12.50;11.30;;;;;;;;;;5094570;28;20504;-70
2022/05/07 11:21:13;;;;;;;15.13;10.73;;;;;;;;;;5094762;28;21006;-70
2022/05/07 11:23:43;;;;;;;13.07;11.03;;;;;;;;;;5093843;28;20466;-70
2022/05/07 11:26:11;;;;;;;13.50;9.77;;;;;;;;;;5094632;28;20484;-70
2022/05/07 11:28:39;;;;;;;10.10;9.20;;;;;;;;;;5094363;28;20451;-70
2022/05/07 11:31:06;;;;;;;9.13;8.23;;;;;;;;;;5094187;28;20478;-70
2022/05/07 11:33:33;;;;;;;11.90;10.30;;;;;;;;;;5094482;28;20446;-70
2022/05/07 11:36:01;;;;;;;8.83;7.93;;;;;;;;;;5093147;28;20546;-70
2022/05/07 11:38:28;;;;;;;14.50;9.03;;;;;;;;;;5094356;28;20439;-70
2022/05/07 11:40:57;;;;;;;11.70;8.37;;;;;;;;;;5094376;28;20473;-70
2022/05/07 11:46:09;;;;;;;14.00;10.33;;;;;;;;;;5093907;28;20418;-70
2022/05/07 11:48:36;;;;;;;10.70;9.00;;;;;;;;;;5094156;28;20947;-70
2022/05/07 11:51:03;;;;;;;10.37;9.37;;;;;;;;;;5093903;28;20974;-70
2022/05/07 11:53:31;;;;;;;11.23;9.67;;;;;;;;;;5093935;28;20445;-70
2022/05/07 11:56:10;;;;;;;14.77;11.33;;;;;;;;;;5093865;28;21050;-70
2022/05/07 11:58:40;;;;;;;17.70;12.87;;;;;;;;;;5094007;28;20442;-70
2022/05/07 12:01:17;;;;;;;12.60;11.30;;;;;;;;;;5093799;28;20467;-70
2022/05/07 12:03:45;;;;;;;14.37;10.17;;;;;;;;;;5094099;28;20443;-71
2022/05/07 12:06:12;;;;;;;16.50;13.40;;;;;;;;;;5093669;28;20462;-71
2022/05/07 12:08:40;;;;;;;17.60;14.17;;;;;;;;;;5093605;28;20504;-71
2022/05/07 12:11:08;;;;;;;15.97;13.50;;;;;;;;;;5093612;28;20490;-71
2022/05/07 12:13:35;;;;;;;15.27;11.87;;;;;;;;;;5093359;28;20512;-71
2022/05/07 12:18:49;;;;;;;14.40;10.93;;;;;;;;;;5093504;28;20418;-70
2022/05/07 12:21:16;;;;;;;21.43;11.67;;;;;;;;;;5092936;28;20962;-70
2022/05/07 12:32:01;;;;;;;16.83;11.70;;;;;;;;;;5090149;28;20427;-70
2022/05/07 12:34:28;;;;;;;13.07;10.90;;;;;;;;;;5072791;28;20462;-70
2022/05/07 12:36:55;;;;;;;10.27;8.53;;;;;;;;;;5072592;28;20523;-70
2022/05/07 12:39:22;;;;;;;13.10;11.70;;;;;;;;;;5072883;28;20472;-71
2022/05/07 12:41:51;;;;;;;12.20;11.10;;;;;;;;;;5072647;28;20464;-70
2022/05/07 12:44:18;;;;;;;13.07;11.37;;;;;;;;;;5072344;28;20456;-70
2022/05/07 12:46:45;;;;;;;11.90;9.50;;;;;;;;;;5072295;28;20894;-70
2022/05/07 12:49:12;;;;;;;10.00;8.60;;;;;;;;;;5072864;28;20475;-71
2022/05/07 12:51:39;;;;;;;11.03;10.00;;;;;;;;;;5072473;28;20451;-70
2022/05/07 12:54:06;;;;;;;10.00;9.00;;;;;;;;;;5072008;28;20456;-70
2022/05/07 12:56:34;;;;;;;7.43;6.73;;;;;;;;;;5072843;28;20993;-70
2022/05/07 12:59:02;;;;;;;9.17;8.20;;;;;;;;;;5072500;28;20533;-70
2022/05/07 13:01:29;;;;;;;7.23;6.57;;;;;;;;;;5072609;28;20810;-70
2022/05/07 13:03:56;;;;;;;9.60;8.00;;;;;;;;;;5072557;28;20459;-70
2022/05/07 13:06:23;;;;;;;7.50;6.80;;;;;;;;;;5072497;28;20804;-70
2022/05/07 13:08:50;;;;;;;22.60;18.70;;;;;;;;;;5074049;28;20483;-71
2022/05/07 13:11:17;;;;;;;11.17;9.90;;;;;;;;;;5093446;28;20457;-70
2022/05/07 13:13:45;;;;;;;8.40;7.60;;;;;;;;;;5093764;28;20458;-70
2022/05/07 13:16:13;;;;;;;8.70;7.90;;;;;;;;;;5093142;28;20450;-70
2022/05/07 13:18:40;;;;;;;9.20;8.30;;;;;;;;;;5093304;28;20434;-70
2022/05/07 13:21:08;;;;;;;9.10;8.20;;;;;;;;;;5093955;28;20446;-70
2022/05/07 13:23:35;;;;;;;10.63;8.60;;;;;;;;;;5093003;28;20838;-70
2022/05/07 13:26:02;;;;;;;10.50;8.60;;;;;;;;;;5093679;28;20458;-70
2022/05/07 13:28:29;;;;;;;13.50;11.20;;;;;;;;;;5093461;28;20475;-70
2022/05/07 13:30:58;;;;;;;10.03;8.97;;;;;;;;;;5093495;28;20471;-70
2022/05/07 13:33:26;;;;;;;7.90;7.20;;;;;;;;;;5093465;28;20446;-70
2022/05/07 13:35:54;;;;;;;8.70;7.17;;;;;;;;;;5093636;28;20462;-70
2022/05/07 13:38:21;;;;;;;11.83;9.30;;;;;;;;;;5093679;28;20813;-70
2022/05/07 13:40:49;;;;;;;8.27;7.33;;;;;;;;;;5093530;28;20485;-70
2022/05/07 13:43:16;;;;;;;11.40;9.13;;;;;;;;;;5093339;28;20458;-70
2022/05/07 13:45:43;;;;;;;9.27;8.03;;;;;;;;;;5093227;28;20477;-70
2022/05/07 13:48:10;;;;;;;10.87;7.97;;;;;;;;;;5093238;28;20902;-70
2022/05/07 13:50:39;;;;;;;10.90;8.47;;;;;;;;;;5093518;28;20470;-69
2022/05/07 13:53:07;;;;;;;7.67;6.97;;;;;;;;;;5093255;28;20465;-70
2022/05/07 13:55:34;;;;;;;10.27;9.27;;;;;;;;;;5093446;28;20449;-70
2022/05/07 13:58:03;;;;;;;8.83;7.93;;;;;;;;;;5093242;28;20820;-70
2022/05/07 14:00:32;;;;;;;7.60;6.90;;;;;;;;;;5092592;28;20513;-70
2022/05/07 14:02:59;;;;;;;8.57;7.70;;;;;;;;;;5093102;28;20459;-70
2022/05/07 14:05:26;;;;;;;9.53;8.63;;;;;;;;;;5093330;28;20454;-70
2022/05/07 14:07:55;;;;;;;9.07;8.17;;;;;;;;;;5093004;28;20518;-70
2022/05/07 14:10:22;;;;;;;11.57;10.23;;;;;;;;;;5092950;28;20470;-70
2022/05/07 14:12:49;;;;;;;10.23;9.20;;;;;;;;;;5093261;28;20858;-70
2022/05/07 14:15:16;;;;;;;8.13;7.33;;;;;;;;;;5092868;28;20458;-69
2022/05/07 14:17:43;;;;;;;12.40;9.80;;;;;;;;;;5093273;28;20935;-70
2022/05/07 14:20:11;;;;;;;9.80;8.40;;;;;;;;;;5093278;28;20960;-70
2022/05/07 14:22:38;;;;;;;15.67;11.57;;;;;;;;;;5092971;28;20974;-70
2022/05/07 14:25:07;;;;;;;8.47;7.53;;;;;;;;;;5093069;28;20896;-70
2022/05/07 14:27:35;;;;;;;10.23;8.93;;;;;;;;;;5092748;28;20498;-70
2022/05/07 14:30:03;;;;;;;11.50;9.17;;;;;;;;;;5092695;28;20887;-70
2022/05/07 14:32:30;;;;;;;9.83;8.73;;;;;;;;;;5093158;28;20446;-70
2022/05/07 14:34:57;;;;;;;11.47;10.20;;;;;;;;;;5092637;28;20446;-70
2022/05/07 14:37:24;;;;;;;11.03;8.70;;;;;;;;;;5093197;28;20777;-70
2022/05/07 14:39:51;;;;;;;9.60;8.60;;;;;;;;;;5092593;28;20477;-70
2022/05/07 14:42:20;;;;;;;8.27;7.47;;;;;;;;;;5092466;28;20459;-70
2022/05/07 14:44:47;;;;;;;11.27;10.17;;;;;;;;;;5092522;28;20537;-70
2022/05/07 14:47:14;;;;;;;9.40;8.07;;;;;;;;;;5092576;28;20447;-70
2022/05/07 14:49:41;;;;;;;8.30;7.50;;;;;;;;;;5092345;28;20462;-70
2022/05/07 14:52:08;;;;;;;8.83;8.03;;;;;;;;;;5093059;28;20959;-70
2022/05/07 14:54:35;;;;;;;8.47;7.67;;;;;;;;;;5092397;28;20450;-70
2022/05/07 14:57:02;;;;;;;8.40;7.70;;;;;;;;;;5092434;28;20966;-70
2022/05/07 14:59:31;;;;;;;8.20;7.40;;;;;;;;;;5092459;28;20990;-70
2022/05/07 15:01:59;;;;;;;8.47;7.67;;;;;;;;;;5092694;28;20442;-70
2022/05/07 15:04:26;;;;;;;9.27;8.37;;;;;;;;;;5092399;28;20450;-70
2022/05/07 15:06:53;;;;;;;9.50;8.50;;;;;;;;;;5092421;28;20442;-70
2022/05/07 15:12:06;;;;;;;9.03;8.20;;;;;;;;;;5096067;28;20815;-70
2022/05/07 15:14:36;;;;;;;12.00;10.80;;;;;;;;;;5095867;28;20458;-70